sensor_id;sensor_type;location;lat;lon;timestamp;P1;durP1;ratioP1;P2;durP2;ratioP2
27684;SDS011;46113;50.130;8.526;2022-10-16T04:17:58;4.93;;;3.30;;
27684;SDS011;46113;50.130;8.526;2022-10-16T04:20:25;3.85;;;2.50;;
27684;SDS011;46113;50.130;8.526;2022-10-16T04:22:51;5.32;;;2.50;;
27684;SDS011;46113;50.130;8.526;2022-10-16T04:25:18;4.70;;;2.55;;
27684;SDS011;46113;50.130;8.526;2022-10-16T04:27:44;3.45;;;2.67;;
27684;SDS011;46113;50.130;8.526;2022-10-16T04:30:11;3.33;;;3.00;;
27684;SDS011;46113;50.130;8.526;2022-10-16T04:32:38;7.05;;;2.55;;
27684;SDS011;46113;50.130;8.526;2022-10-16T04:35:06;3.38;;;2.33;;
27684;SDS011;46113;50.130;8.526;2022-10-16T04:37:33;3.10;;;2.70;;
27684;SDS011;46113;50.130;8.526;2022-10-16T04:39:59;4.03;;;2.15;;
27684;SDS011;46113;50.130;8.526;2022-10-16T04:42:26;1.85;;;1.75;;
27684;SDS011;46113;50.130;8.526;2022-10-16T04:44:52;4.32;;;2.40;;
27684;SDS011;46113;50.130;8.526;2022-10-16T04:47:19;4.20;;;2.85;;
27684;SDS011;46113;50.130;8.526;2022-10-16T04:49:46;2.60;;;2.40;;
27684;SDS011;46113;50.130;8.526;2022-10-16T04:52:12;2.20;;;2.08;;
27684;SDS011;46113;50.130;8.526;2022-10-16T04:54:39;2.75;;;2.00;;
27684;SDS011;46113;50.130;8.526;2022-10-16T04:57:05;1.92;;;1.80;;
27684;SDS011;46113;50.130;8.526;2022-10-16T04:59:32;2.22;;;1.90;;
27684;SDS011;46113;50.130;8.526;2022-10-16T05:01:58;4.72;;;2.28;;
27684;SDS011;46113;50.130;8.526;2022-10-16T05:04:25;4.68;;;2.50;;
27684;SDS011;46113;50.130;8.526;2022-10-16T05:06:51;5.18;;;1.58;;
27684;SDS011;46113;50.130;8.526;2022-10-16T05:09:18;3.10;;;2.17;;
27684;SDS011;46113;50.130;8.526;2022-10-16T05:11:44;6.32;;;1.63;;
27684;SDS011;46113;50.130;8.526;2022-10-16T05:14:11;2.10;;;1.90;;
27684;SDS011;46113;50.130;8.526;2022-10-16T05:16:37;0.95;;;0.93;;
27684;SDS011;46113;50.130;8.526;2022-10-16T05:19:04;2.10;;;1.77;;
27684;SDS011;46113;50.130;8.526;2022-10-16T05:21:50;5.03;;;2.17;;
27684;SDS011;46113;50.130;8.526;2022-10-16T05:24:17;2.40;;;1.77;;
27684;SDS011;46113;50.130;8.526;2022-10-16T05:26:43;1.63;;;1.52;;
27684;SDS011;46113;50.130;8.526;2022-10-16T05:29:10;3.58;;;2.13;;
27684;SDS011;46113;50.130;8.526;2022-10-16T05:31:36;1.70;;;1.60;;
27684;SDS011;46113;50.130;8.526;2022-10-16T05:34:03;2.10;;;2.00;;
27684;SDS011;46113;50.130;8.526;2022-10-16T05:36:30;4.18;;;1.83;;
27684;SDS011;46113;50.130;8.526;2022-10-16T05:38:56;1.55;;;1.45;;
27684;SDS011;46113;50.130;8.526;2022-10-16T05:41:23;4.45;;;2.17;;
27684;SDS011;46113;50.130;8.526;2022-10-16T05:43:53;1.88;;;1.67;;
27684;SDS011;46113;50.130;8.526;2022-10-16T05:46:20;5.45;;;1.67;;
27684;SDS011;46113;50.130;8.526;2022-10-16T05:48:47;2.28;;;1.63;;
27684;SDS011;46113;50.130;8.526;2022-10-16T05:51:13;1.70;;;1.38;;
27684;SDS011;46113;50.130;8.526;2022-10-16T05:53:40;1.67;;;1.58;;
27684;SDS011;46113;50.130;8.526;2022-10-16T05:56:08;1.83;;;1.73;;
27684;SDS011;46113;50.130;8.526;2022-10-16T05:58:36;1.77;;;1.67;;
27684;SDS011;46113;50.130;8.526;2022-10-16T06:01:10;2.15;;;1.70;;
27684;SDS011;46113;50.130;8.526;2022-10-16T06:03:38;8.93;;;2.00;;
27684;SDS011;46113;50.130;8.526;2022-10-16T06:06:09;2.33;;;1.90;;
27684;SDS011;46113;50.130;8.526;2022-10-16T06:08:37;6.28;;;2.38;;
27684;SDS011;46113;50.130;8.526;2022-10-16T06:11:05;3.50;;;2.17;;
27684;SDS011;46113;50.130;8.526;2022-10-16T06:16:33;3.17;;;1.95;;
27684;SDS011;46113;50.130;8.526;2022-10-16T06:19:02;3.45;;;2.05;;
27684;SDS011;46113;50.130;8.526;2022-10-16T06:21:32;2.60;;;1.90;;
27684;SDS011;46113;50.130;8.526;2022-10-16T06:23:59;3.40;;;1.88;;
27684;SDS011;46113;50.130;8.526;2022-10-16T06:26:26;2.45;;;1.83;;
27684;SDS011;46113;50.130;8.526;2022-10-16T06:28:55;2.25;;;2.05;;
27684;SDS011;46113;50.130;8.526;2022-10-16T06:31:25;2.15;;;2.03;;
27684;SDS011;46113;50.130;8.526;2022-10-16T06:33:56;2.45;;;2.13;;
27684;SDS011;46113;50.130;8.526;2022-10-16T06:36:27;3.83;;;1.75;;
27684;SDS011;46113;50.130;8.526;2022-10-16T06:38:58;1.95;;;1.83;;
27684;SDS011;46113;50.130;8.526;2022-10-16T06:41:24;3.50;;;2.20;;
27684;SDS011;46113;50.130;8.526;2022-10-16T06:43:51;1.95;;;1.75;;
27684;SDS011;46113;50.130;8.526;2022-10-16T06:46:19;3.55;;;1.80;;
27684;SDS011;46113;50.130;8.526;2022-10-16T06:48:48;2.63;;;1.67;;
27684;SDS011;46113;50.130;8.526;2022-10-16T06:51:16;3.20;;;1.90;;
27684;SDS011;46113;50.130;8.526;2022-10-16T06:53:45;2.42;;;1.83;;
27684;SDS011;46113;50.130;8.526;2022-10-16T06:56:28;1.80;;;1.70;;
27684;SDS011;46113;50.130;8.526;2022-10-16T06:58:56;1.98;;;1.50;;
27684;SDS011;46113;50.130;8.526;2022-10-16T07:01:24;1.95;;;1.67;;
27684;SDS011;46113;50.130;8.526;2022-10-16T07:03:50;2.25;;;1.48;;
27684;SDS011;46113;50.130;8.526;2022-10-16T07:06:18;2.13;;;1.80;;
27684;SDS011;46113;50.130;8.526;2022-10-16T07:08:46;3.88;;;2.80;;
27684;SDS011;46113;50.130;8.526;2022-10-16T07:11:15;3.90;;;2.08;;
27684;SDS011;46113;50.130;8.526;2022-10-16T07:13:44;10.05;;;6.05;;
27684;SDS011;46113;50.130;8.526;2022-10-16T07:16:20;4.00;;;2.53;;
27684;SDS011;46113;50.130;8.526;2022-10-16T07:18:48;1.38;;;1.27;;
27684;SDS011;46113;50.130;8.526;2022-10-16T07:21:16;3.85;;;1.77;;
27684;SDS011;46113;50.130;8.526;2022-10-16T07:23:53;3.38;;;1.63;;
27684;SDS011;46113;50.130;8.526;2022-10-16T07:26:30;4.32;;;2.38;;
27684;SDS011;46113;50.130;8.526;2022-10-16T07:28:59;1.30;;;1.20;;
27684;SDS011;46113;50.130;8.526;2022-10-16T07:31:27;1.90;;;1.80;;
27684;SDS011;46113;50.130;8.526;2022-10-16T07:33:53;2.75;;;1.50;;
27684;SDS011;46113;50.130;8.526;2022-10-16T07:36:21;3.22;;;1.50;;
27684;SDS011;46113;50.130;8.526;2022-10-16T07:38:47;1.88;;;1.50;;
27684;SDS011;46113;50.130;8.526;2022-10-16T07:41:15;2.17;;;1.98;;
27684;SDS011;46113;50.130;8.526;2022-10-16T07:43:50;4.38;;;2.13;;
27684;SDS011;46113;50.130;8.526;2022-10-16T07:46:19;5.18;;;2.40;;
27684;SDS011;46113;50.130;8.526;2022-10-16T07:49:00;4.15;;;1.83;;
27684;SDS011;46113;50.130;8.526;2022-10-16T07:54:19;3.85;;;2.72;;
27684;SDS011;46113;50.130;8.526;2022-10-16T07:56:46;4.53;;;1.90;;
27684;SDS011;46113;50.130;8.526;2022-10-16T07:59:12;4.95;;;1.80;;
27684;SDS011;46113;50.130;8.526;2022-10-16T08:01:39;5.47;;;1.65;;
27684;SDS011;46113;50.130;8.526;2022-10-16T08:04:05;2.33;;;1.95;;
27684;SDS011;46113;50.130;8.526;2022-10-16T08:06:34;3.03;;;1.60;;
27684;SDS011;46113;50.130;8.526;2022-10-16T08:09:03;2.42;;;1.83;;
27684;SDS011;46113;50.130;8.526;2022-10-16T08:11:30;3.42;;;1.70;;
27684;SDS011;46113;50.130;8.526;2022-10-16T08:13:57;7.35;;;1.90;;
27684;SDS011;46113;50.130;8.526;2022-10-16T08:16:24;8.80;;;1.60;;
27684;SDS011;46113;50.130;8.526;2022-10-16T08:18:50;4.70;;;2.00;;
27684;SDS011;46113;50.130;8.526;2022-10-16T08:21:18;3.15;;;1.73;;
27684;SDS011;46113;50.130;8.526;2022-10-16T08:23:47;2.00;;;1.85;;
27684;SDS011;46113;50.130;8.526;2022-10-16T08:26:22;2.00;;;1.80;;
27684;SDS011;46113;50.130;8.526;2022-10-16T08:28:49;1.80;;;1.70;;
27684;SDS011;46113;50.130;8.526;2022-10-16T08:31:17;2.35;;;1.30;;
27684;SDS011;46113;50.130;8.526;2022-10-16T08:33:44;4.60;;;2.00;;
27684;SDS011;46113;50.130;8.526;2022-10-16T08:36:13;5.20;;;1.73;;
27684;SDS011;46113;50.130;8.526;2022-10-16T08:38:41;3.13;;;1.70;;
27684;SDS011;46113;50.130;8.526;2022-10-16T08:41:16;4.05;;;1.77;;
27684;SDS011;46113;50.130;8.526;2022-10-16T08:49:24;2.28;;;1.83;;
27684;SDS011;46113;50.130;8.526;2022-10-16T08:51:54;3.58;;;1.65;;
27684;SDS011;46113;50.130;8.526;2022-10-16T08:54:56;3.75;;;2.70;;
27684;SDS011;46113;50.130;8.526;2022-10-16T08:57:20;2.28;;;2.03;;
27684;SDS011;46113;50.130;8.526;2022-10-16T08:59:50;5.20;;;1.80;;
27684;SDS011;46113;50.130;8.526;2022-10-16T09:05:36;3.42;;;1.90;;
27684;SDS011;46113;50.130;8.526;2022-10-16T09:10:57;3.63;;;1.67;;
27684;SDS011;46113;50.130;8.526;2022-10-16T09:16:35;4.35;;;2.22;;
27684;SDS011;46113;50.130;8.526;2022-10-16T09:19:13;2.03;;;1.92;;
27684;SDS011;46113;50.130;8.526;2022-10-16T09:21:47;3.47;;;1.83;;
27684;SDS011;46113;50.130;8.526;2022-10-16T09:27:10;5.55;;;1.92;;
27684;SDS011;46113;50.130;8.526;2022-10-16T09:29:38;3.67;;;1.90;;
27684;SDS011;46113;50.130;8.526;2022-10-16T09:35:42;4.65;;;1.67;;
27684;SDS011;46113;50.130;8.526;2022-10-16T09:38:24;4.05;;;2.08;;
27684;SDS011;46113;50.130;8.526;2022-10-16T09:40:52;2.88;;;1.55;;
27684;SDS011;46113;50.130;8.526;2022-10-16T09:46:27;1.60;;;1.50;;
27684;SDS011;46113;50.130;8.526;2022-10-16T09:48:56;2.78;;;2.50;;
27684;SDS011;46113;50.130;8.526;2022-10-16T09:51:35;5.03;;;2.55;;
27684;SDS011;46113;50.130;8.526;2022-10-16T09:56:33;3.05;;;2.05;;
27684;SDS011;46113;50.130;8.526;2022-10-16T09:59:08;6.93;;;2.45;;
27684;SDS011;46113;50.130;8.526;2022-10-16T10:01:41;7.22;;;2.20;;
27684;SDS011;46113;50.130;8.526;2022-10-16T10:04:10;2.60;;;2.40;;
27684;SDS011;46113;50.130;8.526;2022-10-16T10:06:41;5.50;;;1.70;;
27684;SDS011;46113;50.130;8.526;2022-10-16T10:09:22;4.05;;;2.15;;
27684;SDS011;46113;50.130;8.526;2022-10-16T10:14:22;1.98;;;1.77;;
27684;SDS011;46113;50.130;8.526;2022-10-16T10:22:27;2.78;;;1.45;;
27684;SDS011;46113;50.130;8.526;2022-10-16T10:31:44;0.57;;;0.47;;
27684;SDS011;46113;50.130;8.526;2022-10-16T10:34:32;1.10;;;0.93;;
27684;SDS011;46113;50.130;8.526;2022-10-16T10:37:04;3.60;;;0.85;;
27684;SDS011;46113;50.130;8.526;2022-10-16T10:39:41;1.20;;;0.73;;
27684;SDS011;46113;50.130;8.526;2022-10-16T10:42:19;0.70;;;0.68;;
27684;SDS011;46113;50.130;8.526;2022-10-16T10:53:11;2.03;;;0.70;;
27684;SDS011;46113;50.130;8.526;2022-10-16T10:55:53;1.50;;;0.80;;
27684;SDS011;46113;50.130;8.526;2022-10-16T11:06:59;2.35;;;0.90;;
27684;SDS011;46113;50.130;8.526;2022-10-16T11:09:37;1.58;;;0.70;;
27684;SDS011;46113;50.130;8.526;2022-10-16T11:14:35;2.75;;;0.77;;
27684;SDS011;46113;50.130;8.526;2022-10-16T11:17:53;2.08;;;0.60;;
27684;SDS011;46113;50.130;8.526;2022-10-16T11:22:51;1.20;;;0.60;;
27684;SDS011;46113;50.130;8.526;2022-10-16T11:25:26;2.28;;;0.70;;
27684;SDS011;46113;50.130;8.526;2022-10-16T11:27:56;2.47;;;0.90;;
27684;SDS011;46113;50.130;8.526;2022-10-16T11:30:25;2.22;;;0.90;;
27684;SDS011;46113;50.130;8.526;2022-10-16T11:33:03;1.05;;;0.82;;
27684;SDS011;46113;50.130;8.526;2022-10-16T11:46:52;2.58;;;1.27;;
27684;SDS011;46113;50.130;8.526;2022-10-16T11:49:45;1.05;;;1.05;;
27684;SDS011;46113;50.130;8.526;2022-10-16T11:52:17;1.40;;;1.30;;
27684;SDS011;46113;50.130;8.526;2022-10-16T11:57:29;1.60;;;1.50;;
27684;SDS011;46113;50.130;8.526;2022-10-16T12:00:08;1.50;;;1.40;;
27684;SDS011;46113;50.130;8.526;2022-10-16T12:08:06;1.52;;;0.88;;
27684;SDS011;46113;50.130;8.526;2022-10-16T12:10:39;1.05;;;0.93;;
27684;SDS011;46113;50.130;8.526;2022-10-16T12:16:04;0.93;;;0.93;;
27684;SDS011;46113;50.130;8.526;2022-10-16T12:18:40;1.63;;;1.13;;
27684;SDS011;46113;50.130;8.526;2022-10-16T12:21:08;1.45;;;1.35;;
27684;SDS011;46113;50.130;8.526;2022-10-16T12:23:36;1.52;;;0.90;;
27684;SDS011;46113;50.130;8.526;2022-10-16T12:26:05;2.15;;;1.08;;
27684;SDS011;46113;50.130;8.526;2022-10-16T12:28:32;1.20;;;1.10;;
27684;SDS011;46113;50.130;8.526;2022-10-16T12:31:03;2.10;;;1.13;;
27684;SDS011;46113;50.130;8.526;2022-10-16T12:33:33;6.57;;;2.15;;
27684;SDS011;46113;50.130;8.526;2022-10-16T12:36:03;1.75;;;1.50;;
27684;SDS011;46113;50.130;8.526;2022-10-16T12:38:38;2.20;;;1.65;;
27684;SDS011;46113;50.130;8.526;2022-10-16T12:41:12;2.38;;;2.03;;
27684;SDS011;46113;50.130;8.526;2022-10-16T12:43:49;1.70;;;1.60;;
27684;SDS011;46113;50.130;8.526;2022-10-16T12:48:43;1.15;;;1.00;;
27684;SDS011;46113;50.130;8.526;2022-10-16T13:05:35;0.90;;;0.82;;
27684;SDS011;46113;50.130;8.526;2022-10-16T13:08:13;1.10;;;1.10;;
27684;SDS011;46113;50.130;8.526;2022-10-16T13:16:34;1.05;;;1.00;;
27684;SDS011;46113;50.130;8.526;2022-10-16T13:20:11;1.25;;;1.20;;
27684;SDS011;46113;50.130;8.526;2022-10-16T13:22:54;0.90;;;0.90;;
27684;SDS011;46113;50.130;8.526;2022-10-16T13:28:11;3.90;;;0.82;;
27684;SDS011;46113;50.130;8.526;2022-10-16T13:30:42;1.88;;;0.90;;
27684;SDS011;46113;50.130;8.526;2022-10-16T13:33:17;0.93;;;0.93;;
27684;SDS011;46113;50.130;8.526;2022-10-16T13:35:52;1.95;;;1.13;;
27684;SDS011;46113;50.130;8.526;2022-10-16T13:38:53;1.52;;;1.45;;
27684;SDS011;46113;50.130;8.526;2022-10-16T13:41:16;1.52;;;0.90;;
27684;SDS011;46113;50.130;8.526;2022-10-16T13:43:51;0.90;;;0.80;;
27684;SDS011;46113;50.130;8.526;2022-10-16T13:46:20;1.83;;;1.13;;
27684;SDS011;46113;50.130;8.526;2022-10-16T13:49:02;0.93;;;0.90;;
27684;SDS011;46113;50.130;8.526;2022-10-16T13:51:32;0.93;;;0.77;;
27684;SDS011;46113;50.130;8.526;2022-10-16T13:53:59;1.10;;;1.00;;
27684;SDS011;46113;50.130;8.526;2022-10-16T13:56:27;1.42;;;0.80;;
27684;SDS011;46113;50.130;8.526;2022-10-16T13:59:05;1.40;;;0.77;;
27684;SDS011;46113;50.130;8.526;2022-10-16T14:01:48;3.80;;;1.10;;
27684;SDS011;46113;50.130;8.526;2022-10-16T14:04:15;2.90;;;0.90;;
27684;SDS011;46113;50.130;8.526;2022-10-16T14:06:43;1.98;;;1.23;;
27684;SDS011;46113;50.130;8.526;2022-10-16T14:11:51;5.07;;;3.17;;
27684;SDS011;46113;50.130;8.526;2022-10-16T14:14:22;1.35;;;0.90;;
27684;SDS011;46113;50.130;8.526;2022-10-16T14:16:49;1.38;;;0.77;;
27684;SDS011;46113;50.130;8.526;2022-10-16T14:19:21;1.02;;;0.65;;
27684;SDS011;46113;50.130;8.526;2022-10-16T14:21:53;0.80;;;0.80;;
27684;SDS011;46113;50.130;8.526;2022-10-16T14:24:25;0.60;;;0.60;;
27684;SDS011;46113;50.130;8.526;2022-10-16T14:26:59;0.95;;;0.75;;
27684;SDS011;46113;50.130;8.526;2022-10-16T14:29:27;1.00;;;0.93;;
27684;SDS011;46113;50.130;8.526;2022-10-16T14:34:52;0.82;;;0.82;;
27684;SDS011;46113;50.130;8.526;2022-10-16T14:37:27;0.60;;;0.60;;
27684;SDS011;46113;50.130;8.526;2022-10-16T14:41:21;1.98;;;0.70;;
27684;SDS011;46113;50.130;8.526;2022-10-16T14:43:57;0.80;;;0.80;;
27684;SDS011;46113;50.130;8.526;2022-10-16T14:46:31;0.70;;;0.70;;
27684;SDS011;46113;50.130;8.526;2022-10-16T14:49:16;1.67;;;0.68;;
27684;SDS011;46113;50.130;8.526;2022-10-16T14:51:46;1.25;;;1.10;;
27684;SDS011;46113;50.130;8.526;2022-10-16T14:54:14;0.60;;;0.60;;
27684;SDS011;46113;50.130;8.526;2022-10-16T14:56:48;0.75;;;0.57;;
27684;SDS011;46113;50.130;8.526;2022-10-16T15:01:58;6.25;;;2.03;;
27684;SDS011;46113;50.130;8.526;2022-10-16T15:04:24;2.72;;;1.88;;
27684;SDS011;46113;50.130;8.526;2022-10-16T15:06:51;0.95;;;0.85;;
27684;SDS011;46113;50.130;8.526;2022-10-16T15:12:04;1.50;;;1.15;;
27684;SDS011;46113;50.130;8.526;2022-10-16T15:14:31;1.55;;;1.10;;
27684;SDS011;46113;50.130;8.526;2022-10-16T15:16:57;2.65;;;1.02;;
27684;SDS011;46113;50.130;8.526;2022-10-16T15:19:24;1.95;;;1.27;;
27684;SDS011;46113;50.130;8.526;2022-10-16T15:21:50;0.95;;;0.95;;
27684;SDS011;46113;50.130;8.526;2022-10-16T15:24:18;2.97;;;1.15;;
27684;SDS011;46113;50.130;8.526;2022-10-16T15:26:46;1.35;;;1.10;;
27684;SDS011;46113;50.130;8.526;2022-10-16T15:29:13;2.25;;;1.08;;
27684;SDS011;46113;50.130;8.526;2022-10-16T15:31:40;1.00;;;1.00;;
27684;SDS011;46113;50.130;8.526;2022-10-16T15:34:10;1.33;;;1.23;;
27684;SDS011;46113;50.130;8.526;2022-10-16T15:36:37;3.83;;;1.75;;
27684;SDS011;46113;50.130;8.526;2022-10-16T15:39:05;1.52;;;1.40;;
27684;SDS011;46113;50.130;8.526;2022-10-16T15:41:38;1.95;;;1.13;;
27684;SDS011;46113;50.130;8.526;2022-10-16T15:44:06;1.77;;;1.63;;
27684;SDS011;46113;50.130;8.526;2022-10-16T15:46:33;3.45;;;1.50;;
27684;SDS011;46113;50.130;8.526;2022-10-16T15:49:00;2.97;;;1.30;;
27684;SDS011;46113;50.130;8.526;2022-10-16T15:51:27;1.20;;;1.10;;
27684;SDS011;46113;50.130;8.526;2022-10-16T15:53:55;1.30;;;1.20;;
27684;SDS011;46113;50.130;8.526;2022-10-16T15:56:23;1.10;;;1.00;;
27684;SDS011;46113;50.130;8.526;2022-10-16T15:58:51;2.75;;;1.35;;
27684;SDS011;46113;50.130;8.526;2022-10-16T16:01:20;3.80;;;2.45;;
27684;SDS011;46113;50.130;8.526;2022-10-16T16:07:10;4.03;;;1.88;;
27684;SDS011;46113;50.130;8.526;2022-10-16T16:09:37;1.85;;;1.65;;
27684;SDS011;46113;50.130;8.526;2022-10-16T16:12:03;2.25;;;1.13;;
27684;SDS011;46113;50.130;8.526;2022-10-16T16:14:33;3.50;;;1.35;;
27684;SDS011;46113;50.130;8.526;2022-10-16T16:17:00;3.50;;;1.50;;
27684;SDS011;46113;50.130;8.526;2022-10-16T16:19:26;8.48;;;4.28;;
27684;SDS011;46113;50.130;8.526;2022-10-16T16:21:53;6.63;;;3.67;;
27684;SDS011;46113;50.130;8.526;2022-10-16T16:24:19;4.53;;;2.50;;
27684;SDS011;46113;50.130;8.526;2022-10-16T16:26:46;3.75;;;2.55;;
27684;SDS011;46113;50.130;8.526;2022-10-16T16:29:13;5.57;;;3.33;;
27684;SDS011;46113;50.130;8.526;2022-10-16T16:31:41;2.45;;;1.77;;
27684;SDS011;46113;50.130;8.526;2022-10-16T16:34:09;3.38;;;2.58;;
27684;SDS011;46113;50.130;8.526;2022-10-16T16:36:36;5.90;;;2.88;;
27684;SDS011;46113;50.130;8.526;2022-10-16T16:39:03;5.00;;;2.83;;
27684;SDS011;46113;50.130;8.526;2022-10-16T16:41:34;10.32;;;2.65;;
27684;SDS011;46113;50.130;8.526;2022-10-16T16:44:01;4.22;;;2.47;;
27684;SDS011;46113;50.130;8.526;2022-10-16T16:48:59;4.97;;;2.45;;
27684;SDS011;46113;50.130;8.526;2022-10-16T16:51:26;8.90;;;4.03;;
27684;SDS011;46113;50.130;8.526;2022-10-16T16:53:53;3.70;;;2.42;;
27684;SDS011;46113;50.130;8.526;2022-10-16T16:56:21;5.30;;;3.42;;
27684;SDS011;46113;50.130;8.526;2022-10-16T16:58:52;4.45;;;3.13;;
27684;SDS011;46113;50.130;8.526;2022-10-16T17:01:21;12.25;;;3.92;;
27684;SDS011;46113;50.130;8.526;2022-10-16T17:03:50;3.88;;;3.35;;
27684;SDS011;46113;50.130;8.526;2022-10-16T17:06:22;6.28;;;2.97;;
27684;SDS011;46113;50.130;8.526;2022-10-16T17:08:52;4.70;;;3.45;;
27684;SDS011;46113;50.130;8.526;2022-10-16T17:11:20;3.83;;;3.42;;
27684;SDS011;46113;50.130;8.526;2022-10-16T17:13:50;3.33;;;1.83;;
27684;SDS011;46113;50.130;8.526;2022-10-16T17:16:23;4.97;;;3.58;;
27684;SDS011;46113;50.130;8.526;2022-10-16T17:18:53;3.97;;;2.47;;
27684;SDS011;46113;50.130;8.526;2022-10-16T17:21:19;6.70;;;1.63;;
27684;SDS011;46113;50.130;8.526;2022-10-16T17:23:46;1.55;;;1.25;;
27684;SDS011;46113;50.130;8.526;2022-10-16T17:26:13;7.45;;;2.13;;
27684;SDS011;46113;50.130;8.526;2022-10-16T17:28:42;2.95;;;1.70;;
27684;SDS011;46113;50.130;8.526;2022-10-16T17:31:10;2.03;;;1.83;;
27684;SDS011;46113;50.130;8.526;2022-10-16T17:33:38;2.67;;;2.08;;
27684;SDS011;46113;50.130;8.526;2022-10-16T17:39:03;1.70;;;1.48;;
27684;SDS011;46113;50.130;8.526;2022-10-16T17:41:31;2.28;;;2.08;;
27684;SDS011;46113;50.130;8.526;2022-10-16T17:43:59;5.82;;;1.90;;
27684;SDS011;46113;50.130;8.526;2022-10-16T17:46:26;5.68;;;1.75;;
27684;SDS011;46113;50.130;8.526;2022-10-16T17:48:53;7.15;;;1.83;;
27684;SDS011;46113;50.130;8.526;2022-10-16T17:51:30;2.00;;;1.80;;
27684;SDS011;46113;50.130;8.526;2022-10-16T17:53:58;2.38;;;2.17;;
27684;SDS011;46113;50.130;8.526;2022-10-16T17:56:36;2.63;;;1.70;;
27684;SDS011;46113;50.130;8.526;2022-10-16T17:59:03;3.40;;;1.85;;
27684;SDS011;46113;50.130;8.526;2022-10-16T18:01:31;4.50;;;2.45;;
27684;SDS011;46113;50.130;8.526;2022-10-16T18:04:01;3.65;;;2.67;;
27684;SDS011;46113;50.130;8.526;2022-10-16T18:06:32;3.22;;;2.67;;
27684;SDS011;46113;50.130;8.526;2022-10-16T18:12:37;3.70;;;2.60;;
27684;SDS011;46113;50.130;8.526;2022-10-16T18:15:04;5.38;;;2.58;;
27684;SDS011;46113;50.130;8.526;2022-10-16T18:17:33;10.25;;;3.35;;
27684;SDS011;46113;50.130;8.526;2022-10-16T18:20:06;9.15;;;2.40;;
27684;SDS011;46113;50.130;8.526;2022-10-16T18:22:35;5.10;;;2.13;;
27684;SDS011;46113;50.130;8.526;2022-10-16T18:25:02;12.48;;;3.13;;
27684;SDS011;46113;50.130;8.526;2022-10-16T18:27:32;4.63;;;3.10;;
27684;SDS011;46113;50.130;8.526;2022-10-16T18:29:59;4.50;;;3.78;;
27684;SDS011;46113;50.130;8.526;2022-10-16T18:32:28;4.45;;;3.53;;
27684;SDS011;46113;50.130;8.526;2022-10-16T18:34:58;8.02;;;3.58;;
27684;SDS011;46113;50.130;8.526;2022-10-16T18:37:24;7.22;;;3.72;;
27684;SDS011;46113;50.130;8.526;2022-10-16T18:39:55;12.63;;;5.20;;
27684;SDS011;46113;50.130;8.526;2022-10-16T18:42:26;6.47;;;4.47;;
27684;SDS011;46113;50.130;8.526;2022-10-16T18:44:56;3.92;;;3.25;;
27684;SDS011;46113;50.130;8.526;2022-10-16T18:47:23;6.18;;;3.42;;
27684;SDS011;46113;50.130;8.526;2022-10-16T18:49:50;11.52;;;5.75;;
27684;SDS011;46113;50.130;8.526;2022-10-16T18:52:23;12.10;;;4.72;;
27684;SDS011;46113;50.130;8.526;2022-10-16T18:54:55;11.10;;;4.35;;
27684;SDS011;46113;50.130;8.526;2022-10-16T19:00:54;5.00;;;3.85;;
27684;SDS011;46113;50.130;8.526;2022-10-16T19:03:21;12.10;;;3.95;;
27684;SDS011;46113;50.130;8.526;2022-10-16T19:05:47;9.43;;;5.32;;
27684;SDS011;46113;50.130;8.526;2022-10-16T19:08:14;8.70;;;4.05;;
27684;SDS011;46113;50.130;8.526;2022-10-16T19:10:44;6.45;;;4.13;;
27684;SDS011;46113;50.130;8.526;2022-10-16T19:13:10;5.72;;;3.80;;
27684;SDS011;46113;50.130;8.526;2022-10-16T19:15:40;5.85;;;4.60;;
27684;SDS011;46113;50.130;8.526;2022-10-16T19:18:20;11.55;;;4.57;;
27684;SDS011;46113;50.130;8.526;2022-10-16T19:20:52;5.90;;;4.38;;
27684;SDS011;46113;50.130;8.526;2022-10-16T19:23:19;6.38;;;4.43;;
27684;SDS011;46113;50.130;8.526;2022-10-16T19:25:46;8.63;;;4.78;;
27684;SDS011;46113;50.130;8.526;2022-10-16T19:28:13;8.15;;;3.85;;
27684;SDS011;46113;50.130;8.526;2022-10-16T19:30:48;10.10;;;4.05;;
27684;SDS011;46113;50.130;8.526;2022-10-16T19:36:42;5.45;;;3.63;;
27684;SDS011;46113;50.130;8.526;2022-10-16T19:39:31;9.27;;;4.10;;
27684;SDS011;46113;50.130;8.526;2022-10-16T19:41:57;6.80;;;4.00;;
27684;SDS011;46113;50.130;8.526;2022-10-16T19:44:24;10.35;;;4.10;;
27684;SDS011;46113;50.130;8.526;2022-10-16T19:46:51;6.03;;;3.90;;
27684;SDS011;46113;50.130;8.526;2022-10-16T19:49:18;6.95;;;3.63;;
27684;SDS011;46113;50.130;8.526;2022-10-16T19:51:47;5.55;;;4.53;;
27684;SDS011;46113;50.130;8.526;2022-10-16T19:57:11;6.75;;;4.40;;
27684;SDS011;46113;50.130;8.526;2022-10-16T20:00:07;5.75;;;4.20;;
27684;SDS011;46113;50.130;8.526;2022-10-16T20:02:37;5.15;;;3.58;;
27684;SDS011;46113;50.130;8.526;2022-10-16T20:05:03;6.72;;;4.60;;
27684;SDS011;46113;50.130;8.526;2022-10-16T20:10:30;7.22;;;4.28;;
27684;SDS011;46113;50.130;8.526;2022-10-16T20:12:56;5.28;;;3.83;;
27684;SDS011;46113;50.130;8.526;2022-10-16T20:15:22;8.95;;;3.72;;
27684;SDS011;46113;50.130;8.526;2022-10-16T20:17:49;7.05;;;4.63;;
27684;SDS011;46113;50.130;8.526;2022-10-16T20:20:15;4.55;;;3.35;;
27684;SDS011;46113;50.130;8.526;2022-10-16T20:22:42;8.02;;;4.07;;
27684;SDS011;46113;50.130;8.526;2022-10-16T20:25:09;6.38;;;3.88;;
27684;SDS011;46113;50.130;8.526;2022-10-16T20:27:37;7.82;;;3.15;;
27684;SDS011;46113;50.130;8.526;2022-10-16T20:30:04;8.75;;;3.10;;
27684;SDS011;46113;50.130;8.526;2022-10-16T20:32:31;7.25;;;3.72;;
27684;SDS011;46113;50.130;8.526;2022-10-16T20:34:57;7.85;;;4.15;;
27684;SDS011;46113;50.130;8.526;2022-10-16T20:37:25;7.57;;;3.35;;
27684;SDS011;46113;50.130;8.526;2022-10-16T20:39:52;7.85;;;2.97;;
27684;SDS011;46113;50.130;8.526;2022-10-16T20:42:18;6.90;;;3.45;;
27684;SDS011;46113;50.130;8.526;2022-10-16T20:44:45;4.97;;;3.38;;
27684;SDS011;46113;50.130;8.526;2022-10-16T20:47:16;13.23;;;3.75;;
27684;SDS011;46113;50.130;8.526;2022-10-16T20:49:42;10.88;;;5.28;;
27684;SDS011;46113;50.130;8.526;2022-10-16T20:52:09;10.40;;;5.60;;
27684;SDS011;46113;50.130;8.526;2022-10-16T20:54:35;12.90;;;5.10;;
27684;SDS011;46113;50.130;8.526;2022-10-16T20:57:02;6.78;;;4.43;;
27684;SDS011;46113;50.130;8.526;2022-10-16T20:59:28;5.13;;;3.30;;
27684;SDS011;46113;50.130;8.526;2022-10-16T21:01:55;7.95;;;3.78;;
27684;SDS011;46113;50.130;8.526;2022-10-16T21:04:21;10.10;;;3.83;;
27684;SDS011;46113;50.130;8.526;2022-10-16T21:06:48;9.73;;;4.47;;
27684;SDS011;46113;50.130;8.526;2022-10-16T21:09:14;6.80;;;3.22;;
27684;SDS011;46113;50.130;8.526;2022-10-16T21:11:41;6.38;;;3.42;;
27684;SDS011;46113;50.130;8.526;2022-10-16T21:14:07;9.50;;;3.30;;
27684;SDS011;46113;50.130;8.526;2022-10-16T21:16:35;7.63;;;4.05;;
27684;SDS011;46113;50.130;8.526;2022-10-16T21:19:02;5.95;;;3.20;;
27684;SDS011;46113;50.130;8.526;2022-10-16T21:21:29;8.30;;;3.15;;
27684;SDS011;46113;50.130;8.526;2022-10-16T21:23:58;7.82;;;3.15;;
27684;SDS011;46113;50.130;8.526;2022-10-16T21:26:25;4.25;;;2.85;;
27684;SDS011;46113;50.130;8.526;2022-10-16T21:28:54;5.07;;;3.58;;
27684;SDS011;46113;50.130;8.526;2022-10-16T21:31:22;7.60;;;3.53;;
27684;SDS011;46113;50.130;8.526;2022-10-16T21:33:49;7.45;;;2.72;;
27684;SDS011;46113;50.130;8.526;2022-10-16T21:36:17;10.27;;;2.95;;
27684;SDS011;46113;50.130;8.526;2022-10-16T21:38:46;2.92;;;2.47;;
27684;SDS011;46113;50.130;8.526;2022-10-16T21:41:20;13.25;;;3.60;;
27684;SDS011;46113;50.130;8.526;2022-10-16T21:43:48;2.92;;;2.63;;
27684;SDS011;46113;50.130;8.526;2022-10-16T21:46:16;5.22;;;3.25;;
27684;SDS011;46113;50.130;8.526;2022-10-16T21:48:44;5.93;;;3.10;;
27684;SDS011;46113;50.130;8.526;2022-10-16T21:51:12;3.72;;;2.92;;
27684;SDS011;46113;50.130;8.526;2022-10-16T21:53:39;6.55;;;2.88;;
27684;SDS011;46113;50.130;8.526;2022-10-16T21:56:11;16.13;;;4.85;;
